Portada
METAR-TAF:

METAR-TAF

Aeroports :

Amritsar, Índia

latitud: 31-38N, longitud: 074-52E, altitud: 229 m

Observació

L'informe es va fer fa 13 minuts, a les 16:00 UTC
Vent 6 kt del Sud
Temperatura 27°C
Humitat 48%
Pressió 1009 hPa
Visibilitat: 3000 m
Núvols disperses a una alçada de 3500 ft
Escasses núvols a una alçada de 4000 ft, Cumulonimbus.
Cel ennuvolat a una alçada de 9000 ft
calitja

METAR: VIAR 061600Z 17006KT 3000 HZ SCT035 FEW040CB BKN090 27/15 Q1009 TEMPO 32015G25KT

Hora: 21:43 (16:13 UTC)

Pronòstic

L'informe es va fer fa 2 hores i 13 minuts, a les 14:00 UTC
Pronòstic vàlid del 06 a les 15 UTC al 06 a les 24 UTC
Vent 8 kt del Oest/Nord-Oest
Visibilitat: 3000 m
Núvols disperses a una alçada de 4000 ft
Cel ennuvolat a una alçada de 10000 ft
Pols estès, calitja
Temporalment
l' 06 a les 21 UTC al 06 a les 24 UTC
Escasses núvols a una alçada de 4000 ft, Cumulonimbus.

TAF: VIAR 061400Z 0615/0624 29008KT 3000 DU HZ SCT040 BKN100 TEMPO 0621/0624 FEW040CB

Observacions i pronòstics meteorològics de més de 4000 aeroports (METAR i TAF).

Les estacions disponibles són els punts grocs i vermells al mapa.

Posi el ratolí al punt desitjat per veure el nom de l'estació.

Feu clic per veure les observacions i els pronòstics meteorològics.

Per canviar el mapa: feu clic els botons verds amb una creu de color negre per apropar; al botó verd amb un guió per allunyar la imatge; o en les fletxes verdes per a mapes adjacents.


METAR-TAF: